Tiempo atmosférico en la estación meteorológica de Alpedrete, Madrid (924 m.)



Fecha
DESCASC
Temp. máxima en grados centígrados (hora)
DESCASC
Temp. mínima en grados centígrados (hora)
DESCASC
Temp. media en grados centígrados
DESCASC
Racha de viento máxima en m/sg (hora)
DESCASC
Velocidad máxima media en intervalos de 10 minutos(hora)
DESCASC
Precipitaciones diarias en mm
DESCASC
Precipitaciones de 00:00 a 06:00 en mm
DESCASC
Precipitaciones de 06:00 a 12:00 en mm
DESCASC
Precipitaciones de 12:00 a 18:00 en mm
DESCASC
Precipitaciones de 18:00 a 24:00 en mm
DESCASC
21-02-2019 16.7 (16:20) 1.8 (07:30) 9.3 5.56 (16:30) 2.78 (16:30) 0 0 0 0 0
20-02-2019 14.3 (16:20) 1.3 (07:50) 7.8 6.67 (14:10) 2.78 (14:20) 0 0 0 0 0
19-02-2019 15 (17:10) 2.6 (06:20) 8.8 4.72 (14:40) 2.22 (15:30) 0 0 0 0 0
18-02-2019 13.5 (16:40) 0.3 (06:30) 6.9 6.11 (13:20) 3.61 (12:30) 0 0 0 0 0
17-02-2019 14.5 (16:40) -0.1 (00:00) 7.2 6.11 (16:30) 3.33 (14:00) 0 0 0 0 0
16-02-2019 14.8 (16:20) 2.6 (00:00) 8.7 7.22 (15:50) 4.17 (16:00) 0 0 0 0 0
15-02-2019 18.1 (16:10) -0.3 (00:00) 8.9 3.61 (15:10) 1.67 (15:10) 0 0 0 0 0
14-02-2019 14.4 (16:30) 0.1 (00:00) 7.2 5 (14:00) 2.5 (13:50) 0 0 0 0 0
13-02-2019 16.1 (15:40) 0.3 (00:00) 8.2 5 (16:20) 1.94 (15:50) 0 0 0 0 0
12-02-2019 14.8 (17:20) -1.1 (-00:0) 6.9 5.56 (15:00) 2.78 (00:10) 0 0 0 0 0
11-02-2019 14.3 (14:20) 2.2 (00:00) 8.3 8.89 (04:10) 4.44 (04:10) 0 0 0 0 0
10-02-2019 13 (17:10) 2.6 (00:00) 7.8 12.5 (22:20) 6.67 (22:20) 0 0 0 0 0
09-02-2019 14 (13:50) 1.9 (00:00) 7.9 7.22 (01:40) 3.61 (01:40) 0 0 0 0 0
08-02-2019 15.7 (16:40) 0.3 (00:00) 8 9.44 (22:50) 5.83 (23:00) 0 0 0 0 0
07-02-2019 14.3 (16:20) 3.3 (00:00) 8.8 10.56 (12:20) 6.39 (11:00) 0 0 0 0 0
06-02-2019 16.6 (16:00) 1.4 (00:00) 9 4.17 (16:00) 1.67 (16:20) 0 0 0 0 0
05-02-2019 16 (15:30) 1.2 (00:00) 8.6 5.28 (13:40) 2.22 (14:30) 0 0 0 0 0
04-02-2019 15.2 (15:30) -2.7 (-00:0) 6.2 7.5 (02:30) 3.61 (02:30) 0 0 0 0 0
03-02-2019 6.2 (15:50) -0.8 (-00:0) 2.7 16.39 (14:20) 9.17 (14:20) 0 0 0 0 0
02-02-2019 5 (16:20) 0.2 (00:00) 2.6 23.06 (12:50) 11.94 (12:40) 0.2 0 0 0 0.2
01-02-2019 7.8 (01:40) 2.6 (00:00) 5.2 18.89 (23:10) 10.56 (23:50) 4 2.4 0 1.6 0
31-01-2019 12.4 (14:20) 4.8 (00:00) 8.6 9.72 (15:00) 4.17 (15:00) 1 0.8 0 0 0.2
30-01-2019 8.4 (14:40) 2.5 (00:00) 5.4 10.83 (10:00) 6.67 (12:30) 5.2 0 0 0.2 5
29-01-2019 9.5 (14:10) 3.4 (00:00) 6.5 17.22 (18:30) 10 (20:40) 2 0 0 0.8 1.2
28-01-2019 10.8 (15:40) 2.8 (00:00) 6.8 20.28 (13:20) 11.39 (12:30) 0 0 0 0 0
27-01-2019 10.6 (15:40) 4.8 (00:00) 7.7 18.33 (00:40) 8.89 (01:00) 0 0 0 0 0
26-01-2019 15.6 (16:00) -0.8 (-00:0) 7.4 10.83 (23:59) 6.39 (23:59) 0 0 0 0 0
25-01-2019 17.4 (14:40) 5.1 (00:00) 11.2 16.67 (09:40) 8.89 (09:50) 0 0 0 0 0
24-01-2019 12.1 (16:40) 8.5 (00:00) 10.3 22.22 (04:50) 10 (05:20) 0 0 0 0 0

Gráficas

Temp. máximas Temp. mínimas Temp. medias Precipitaciones Rachas de viento máximas Velocidades máximas media en intervalos de 10 minutos

Datos horarios

Fecha y hora oficial Temperatura (ºC) Velocidad del viento (km/h) Dirección del viento Racha (km/h) Dirección de racha Precipitación (mm) Presión (hPa) Tendencia (hPa) Humedad (%)
2019-02-22 23:00:00 5.5 2 Noroeste 4 Oeste 0 -- -- 52
2019-02-22 22:00:00 5.9 3 Norte 6 Norte 0 -- -- 51
2019-02-22 21:00:00 7.9 2 Noroeste 4 Norte 0 -- -- 44
2019-02-22 20:00:00 10.8 3 Este 6 Sur 0 -- -- 36
2019-02-22 19:00:00 14.3 3 Sur 10 Sur 0 -- -- 27
2019-02-22 18:00:00 17.4 6 Sur 12 Sur 0 -- -- 24
2019-02-22 17:00:00 18.8 4 Sudoeste 16 Sudeste 0 -- -- 23
2019-02-22 16:00:00 18.5 5 Sur 15 Sur 0 -- -- 23
2019-02-22 15:00:00 18 7 Sudoeste 18 Sur 0 -- -- 22
2019-02-22 14:00:00 17.6 6 Oeste 14 Sur 0 -- -- 24
2019-02-22 13:00:00 17 4 Oeste 13 Sudoeste 0 -- -- 29
2019-02-22 12:00:00 15.3 5 Sudoeste 12 Sur 0 -- -- 35
2019-02-22 11:00:00 14.3 3 Sudoeste 7 Oeste 0 -- -- 38
2019-02-22 10:00:00 12.1 0 Calma 4 Noroeste 0 -- -- 47
2019-02-22 09:00:00 5.8 2 Nordeste 4 Este 0 -- -- 61
2019-02-22 08:00:00 1.6 2 Norte 6 Norte 0 -- -- 75
2019-02-22 07:00:00 2.5 0 Calma 6 Norte 0 -- -- 71
2019-02-22 06:00:00 2.2 0 Calma 4 Noroeste 0 -- -- 72
2019-02-22 05:00:00 2.8 0 Calma 5 Norte 0 -- -- 71
2019-02-22 04:00:00 2.8 2 Norte 5 Noroeste 0 -- -- 71
2019-02-22 03:00:00 3.4 2 Noroeste 4 Noroeste 0 -- -- 66
2019-02-22 02:00:00 3.8 0 Calma 6 Norte 0 -- -- 67
2019-02-22 01:00:00 4.1 2 Noroeste 4 Noroeste 0 -- -- 64
2019-02-22 00:00:00 4.6 0 Calma 6 Noroeste 0 -- -- 62
2019-02-21 23:00:00 5.3 0 Calma 4 Norte 0 -- -- 61
2019-02-21 22:00:00 5.8 3 Noroeste 6 Norte 0 -- -- 59
2019-02-21 21:00:00 6.7 0 Calma 5 Noroeste 0 -- -- 56
2019-02-21 20:00:00 8.5 2 Norte 6 Nordeste 0 -- -- 49
2019-02-21 19:00:00 12.5 0 Calma 12 Sur 0 -- -- 37
2019-02-21 18:00:00 15.6 5 Sur 17 Sur 0 -- -- 31
2019-02-21 17:00:00 16.1 7 Sur 20 Sur 0 -- -- 33
2019-02-21 16:00:00 15.7 8 Sudeste 18 Este 0 -- -- 33
2019-02-21 15:00:00 15.9 8 Sudeste 18 Sudeste 0 -- -- 36
2019-02-21 14:00:00 15.1 9 Sur 19 Sudeste 0 -- -- 39
2019-02-21 13:00:00 15 6 Sudeste 17 Sur 0 -- -- 45
2019-02-21 12:00:00 13.9 4 Sudoeste 10 Sur 0 -- -- 51
2019-02-21 11:00:00 13.7 0 Calma 6 Sudoeste 0 -- -- 50
2019-02-21 10:00:00 9 0 Calma 2 Sudoeste 0 -- -- 63
2019-02-21 09:00:00 4.7 0 Calma 5 Noroeste 0 -- -- 80
2019-02-21 08:00:00 2.6 2 Norte 4 Este 0 -- -- 87
2019-02-21 07:00:00 2.6 0 Calma 8 Norte 0 -- -- 88
2019-02-21 06:00:00 2.1 0 Calma 6 Norte 0 -- -- 88
2019-02-21 05:00:00 2.3 0 Calma 4 Norte 0 -- -- 89
2019-02-21 04:00:00 2.9 0 Calma 2 Noroeste 0 -- -- 87
2019-02-21 03:00:00 2.9 0 Calma 2 Noroeste 0 -- -- 86
2019-02-21 02:00:00 3.2 0 Calma 4 Norte 0 -- -- 88
2019-02-21 01:00:00 3.7 0 Calma 4 Noroeste 0 -- -- 83
2019-02-21 00:00:00 3.8 0 Calma 3 Norte 0 -- -- 82
2019-02-20 23:00:00 4.2 0 Calma 3 Noroeste 0 -- -- 81
2019-02-20 22:00:00 5.3 2 Noroeste 4 Norte 0 -- -- 76
2019-02-20 21:00:00 6.5 0 Calma 6 Norte 0 -- -- 73
2019-02-20 20:00:00 7.8 4 Noroeste 8 Noroeste 0 -- -- 67
2019-02-20 19:00:00 10.7 3 Sur 9 Sur 0 -- -- 56
2019-02-20 18:00:00 13.4 4 Sur 14 Sur 0 -- -- 47
2019-02-20 17:00:00 14.2 6 Sur 17 Sur 0 -- -- 47
2019-02-20 16:00:00 13.8 8 Sur 20 Sur 0 -- -- 50
2019-02-20 15:00:00 13.9 7 Sur 24 Sur 0 -- -- 49
2019-02-20 14:00:00 13.5 8 Sudeste 18 Sur 0 -- -- 53
2019-02-20 13:00:00 13.4 5 Sur 13 Sur 0 -- -- 53
2019-02-20 12:00:00 11.9 6 Sudeste 13 Sudeste 0 -- -- 59
2019-02-20 11:00:00 10.2 5 Sur 9 Sur 0 -- -- 63
2019-02-20 10:00:00 7.3 0 Calma 4 Sudoeste 0 -- -- 73
2019-02-20 09:00:00 3.9 0 Calma 5 Noroeste 0 -- -- 86
2019-02-20 08:00:00 1.4 0 Calma 5 Nordeste 0 -- -- 91
2019-02-20 07:00:00 2 0 Calma 3 Nordeste 0 -- -- 91
2019-02-20 06:00:00 2.2 2 Nordeste 8 Norte 0 -- -- 91
2019-02-20 05:00:00 2.6 4 Norte 6 Norte 0 -- -- 89
2019-02-20 04:00:00 3.2 0 Calma 7 Norte 0 -- -- 86
2019-02-20 03:00:00 2.8 2 Noroeste 8 Sudoeste 0 -- -- 87
2019-02-20 02:00:00 2.9 0 Calma 3 Norte 0 -- -- 87
2019-02-20 01:00:00 3.4 0 Calma 5 Norte 0 -- -- 83
2019-02-20 00:00:00 4 0 Calma 5 Norte 0 -- -- 82
2019-02-19 23:00:00 4.4 0 Calma 3 Norte 0 -- -- 79
2019-02-19 22:00:00 5.3 0 Calma 3 Sudoeste 0 -- -- 76
2019-02-19 21:00:00 5.8 2 Noroeste 5 Norte 0 -- -- 72
2019-02-19 20:00:00 7.5 3 Norte 5 Noroeste 0 -- -- 66
2019-02-19 19:00:00 10.4 3 Sur 12 Sur 0 -- -- 55
2019-02-19 18:00:00 13.3 4 Sur 12 Este 0 -- -- 46
2019-02-19 17:00:00 14.4 3 Oeste 12 Sudoeste 0 -- -- 45
2019-02-19 16:00:00 14.5 4 Sudoeste 17 Oeste 0 -- -- 46
2019-02-19 15:00:00 13.9 5 Sur 17 Sur 0 -- -- 50
2019-02-19 14:00:00 13.2 4 Sudoeste 12 Sudoeste 0 -- -- 52
2019-02-19 13:00:00 12.5 5 Sur 13 Sudeste 0 -- -- 56
2019-02-19 12:00:00 11.5 4 Sudeste 13 Sur 0 -- -- 60
2019-02-19 11:00:00 9.5 4 Sur 9 Sudeste 0 -- -- 66
2019-02-19 10:00:00 5.9 0 Calma 3 Sudeste 0 -- -- 77
2019-02-19 09:00:00 3.7 0 Calma 5 Norte 0 -- -- 84
2019-02-19 08:00:00 2.6 3 Norte 6 Norte 0 -- -- 87
2019-02-19 07:00:00 2.8 0 Calma 5 Norte 0 -- -- 87
2019-02-19 06:00:00 2.7 0 Calma 3 Noroeste 0 -- -- 84
2019-02-19 05:00:00 3.4 0 Calma 4 Noroeste 0 -- -- 81
2019-02-19 04:00:00 4.1 0 Calma 5 Nordeste 0 -- -- 76
2019-02-19 03:00:00 4.1 0 Calma 4 Noroeste 0 -- -- 75
2019-02-19 02:00:00 3.8 0 Calma 5 Norte 0 -- -- 75
2019-02-19 01:00:00 3.7 0 Calma 4 Noroeste 0 -- -- 76
2019-02-19 00:00:00 4.2 0 Calma 4 Norte 0 -- -- 73
2019-02-18 23:00:00 4.6 0 Calma 8 Norte 0 -- -- 70
2019-02-18 22:00:00 5.1 3 Noroeste 7 Noroeste 0 -- -- 68
2019-02-18 21:00:00 6.2 2 Noroeste 6 Noroeste 0 -- -- 65
2019-02-18 20:00:00 7.3 4 Noroeste 6 Nordeste 0 -- -- 61
2019-02-18 19:00:00 9.6 4 Este 10 Sudeste 0 -- -- 54
2019-02-18 18:00:00 11.7 6 Este 12 Sudeste 0 -- -- 46
2019-02-18 17:00:00 13.4 6 Este 17 Este 0 -- -- 39
2019-02-18 16:00:00 12.6 9 Este 21 Nordeste 0 -- -- 42
2019-02-18 15:00:00 12.8 10 Este 20 Este 0 -- -- 47
2019-02-18 14:00:00 11.8 9 Este 22 Este 0 -- -- 49
2019-02-18 13:00:00 10.3 13 Este 22 Este 0 -- -- 53
2019-02-18 12:00:00 9 9 Este 19 Este 0 -- -- 62
2019-02-18 11:00:00 6.6 6 Este 19 Este 0 -- -- 71
2019-02-18 10:00:00 5.4 2 Sudeste 16 Este 0 -- -- 74
2019-02-18 09:00:00 2.5 0 Calma 5 Sur 0 -- -- 82
2019-02-18 08:00:00 1 0 Calma 5 Norte 0 -- -- 88
2019-02-18 07:00:00 0.8 0 Calma 8 Sudeste 0 -- -- 87
2019-02-18 06:00:00 1.1 0 Calma 4 Oeste 0 -- -- 83
2019-02-18 05:00:00 2.7 3 Noroeste 8 Noroeste 0 -- -- 74
2019-02-18 04:00:00 2.3 0 Calma 5 Noroeste 0 -- -- 72
2019-02-18 03:00:00 3.9 0 Calma 6 Norte 0 -- -- 64
2019-02-18 02:00:00 3.7 2 Noroeste 5 Noroeste 0 -- -- 63
2019-02-18 01:00:00 4.4 0 Calma 8 Noroeste 0 -- -- 59
2019-02-18 00:00:00 5.2 6 Noroeste 10 Noroeste 0 -- -- 53
2019-02-17 23:00:00 7.2 0 Calma 9 Este 0 -- -- 47
2019-02-17 22:00:00 4.9 0 Calma 6 Noroeste 0 -- -- 52
2019-02-17 21:00:00 5.3 2 Noroeste 7 Oeste 0 -- -- 51
2019-02-17 20:00:00 8.2 2 Oeste 9 Nordeste 0 -- -- 43
2019-02-17 19:00:00 10.1 4 Nordeste 9 Sur 0 -- -- 38
2019-02-17 18:00:00 13.3 5 Sudeste 17 Sudeste 0 -- -- 30
2019-02-17 17:00:00 14.1 5 Sudeste 22 Sudeste 0 -- -- 27
2019-02-17 16:00:00 13.8 7 Sudeste 18 Sudeste 0 -- -- 27
2019-02-17 15:00:00 13.3 9 Sudeste 20 Sudeste 0 -- -- 26
2019-02-17 14:00:00 12.8 12 Este 19 Este 0 -- -- 25
2019-02-17 13:00:00 13.2 8 Este 18 Sudeste 0 -- -- 24
2019-02-17 12:00:00 12.3 7 Sudeste 14 Sudeste 0 -- -- 25
2019-02-17 11:00:00 10.7 4 Sudoeste 9 Sudoeste 0 -- -- 32
2019-02-17 10:00:00 9.2 3 Sur 5 Sur 0 -- -- 42
2019-02-17 09:00:00 3.9 0 Calma 6 Norte 0 -- -- 55
2019-02-17 08:00:00 -0.1 0 Calma 5 Norte 0 -- -- 66
2019-02-17 07:00:00 0.5 0 Calma 8 Norte 0 -- -- 65
2019-02-17 06:00:00 1.2 3 Norte 10 Noroeste 0 -- -- 62
2019-02-17 05:00:00 1.1 3 Noroeste 6 Sudeste 0 -- -- 67
2019-02-17 04:00:00 1.5 0 Calma 4 Sur 0 -- -- 69
2019-02-17 03:00:00 2.6 3 Noroeste 8 Noroeste 0 -- -- 66
2019-02-17 02:00:00 3.8 0 Calma 7 Este 0 -- -- 63
2019-02-17 01:00:00 5.2 0 Calma 11 Sur 0 -- -- 56
2019-02-17 00:00:00 8.1 7 Este 13 Este 0 -- -- 46
2019-02-16 23:00:00 8.3 3 Este 11 Nordeste 0 -- -- 47
2019-02-16 22:00:00 8.1 2 Sudoeste 13 Este 0 -- -- 48
2019-02-16 21:00:00 9.1 0 Calma 9 Este 0 -- -- 44
2019-02-16 20:00:00 10.4 4 Nordeste 12 Este 0 -- -- 39
2019-02-16 19:00:00 11.7 6 Este 13 Este 0 -- -- 35
2019-02-16 18:00:00 14.2 8 Este 19 Este 0 -- -- 31
2019-02-16 17:00:00 14.6 12 Este 22 Este 0 -- -- 30
2019-02-16 16:00:00 14.3 15 Este 26 Este 0 -- -- 30
2019-02-16 15:00:00 14.2 13 Este 24 Este 0 -- -- 32
2019-02-16 14:00:00 14.2 10 Este 24 Sudeste 0 -- -- 32
2019-02-16 13:00:00 13.6 9 Este 22 Este 0 -- -- 32
2019-02-16 12:00:00 12.5 10 Este 24 Sudeste 0 -- -- 34
2019-02-16 11:00:00 12 12 Este 19 Este 0 -- -- 46
2019-02-16 10:00:00 10.2 2 Norte 6 Este 0 -- -- 61
2019-02-16 09:00:00 5.9 0 Calma 5 Norte 0 -- -- 75
2019-02-16 08:00:00 2.6 0 Calma 6 Norte 0 -- -- 84
2019-02-16 07:00:00 3.5 3 Norte 6 Norte 0 -- -- 86
2019-02-16 06:00:00 3.6 0 Calma 6 Este 0 -- -- 83
2019-02-16 05:00:00 3.3 3 Norte 6 Norte 0 -- -- 85
2019-02-16 04:00:00 3.6 0 Calma 6 Este 0 -- -- 81
2019-02-16 03:00:00 4.3 0 Calma 6 Norte 0 -- -- 80
2019-02-16 02:00:00 4.2 0 Calma 5 Norte 0 -- -- 77
2019-02-16 01:00:00 5 4 Norte 6 Norte 0 -- -- 74
2019-02-16 00:00:00 5.3 0 Calma 4 Norte 0 -- -- 72
2019-02-15 23:00:00 5.2 2 Norte 9 Norte 0 -- -- 73
2019-02-15 22:00:00 6 5 Norte 8 Norte 0 -- -- 72
2019-02-15 21:00:00 6.7 2 Nordeste 6 Noroeste 0 -- -- 68
2019-02-15 20:00:00 9.4 3 Norte 9 Norte 0 -- -- 58
2019-02-15 19:00:00 12.4 0 Calma 7 Sur 0 -- -- 47
2019-02-15 18:00:00 15.9 4 Sur 10 Sur 0 -- -- 39
2019-02-15 17:00:00 17.7 4 Sudeste 12 Sudeste 0 -- -- 39
2019-02-15 16:00:00 17.8 4 Sur 13 Sur 0 -- -- 39
2019-02-15 15:00:00 17.4 5 Sur 12 Sur 0 -- -- 38
2019-02-15 14:00:00 17.1 3 Sudeste 11 Sudeste 0 -- -- 37
2019-02-15 13:00:00 15.7 3 Sudoeste 9 Sudoeste 0 -- -- 41
2019-02-15 12:00:00 13.6 3 Oeste 6 Sudoeste 0 -- -- 45
2019-02-15 11:00:00 14.3 0 Calma 3 Sudoeste 0 -- -- 44
2019-02-15 10:00:00 8 0 Calma 2 Noroeste 0 -- -- 62
2019-02-15 09:00:00 5.1 0 Calma 2 Este 0 -- -- 75
2019-02-15 08:00:00 -0.2 3 Noroeste 5 Norte 0 -- -- 90
2019-02-15 07:00:00 0.4 0 Calma 3 Norte 0 -- -- 86
2019-02-15 06:00:00 0.1 3 Noroeste 5 Norte 0 -- -- 87
2019-02-15 05:00:00 1 0 Calma 5 Norte 0 -- -- 85
2019-02-15 04:00:00 1.1 0 Calma 2 Norte 0 -- -- 81
2019-02-15 03:00:00 1.7 0 Calma 5 Noroeste 0 -- -- 81
2019-02-15 02:00:00 2.4 0 Calma 3 Norte 0 -- -- 76
2019-02-15 01:00:00 2.4 0 Calma 4 Norte 0 -- -- 76
2019-02-15 00:00:00 2.9 0 Calma 3 Norte 0 -- -- 74
2019-02-14 23:00:00 3.5 0 Calma 3 Norte 0 -- -- 67
2019-02-14 22:00:00 3.9 0 Calma 9 Noroeste 0 -- -- 62
2019-02-14 21:00:00 4.5 2 Noroeste 7 Este 0 -- -- 59
2019-02-14 20:00:00 7 3 Noroeste 6 Noroeste 0 -- -- 49
2019-02-14 19:00:00 9.4 2 Norte 9 Sudeste 0 -- -- 41
2019-02-14 18:00:00 13 4 Sur 14 Sur 0 -- -- 35
2019-02-14 17:00:00 13.8 6 Sur 17 Sur 0 -- -- 33
2019-02-14 16:00:00 14.2 6 Sur 16 Sur 0 -- -- 33
2019-02-14 15:00:00 13.9 6 Sur 18 Sur 0 -- -- 38
2019-02-14 14:00:00 12.9 8 Sur 18 Sur 0 -- -- 40
2019-02-14 13:00:00 13.3 4 Sudeste 12 Sur 0 -- -- 38
2019-02-14 12:00:00 12.3 2 Sudeste 6 Sudeste 0 -- -- 39
2019-02-14 11:00:00 8.8 2 Noroeste 8 Sur 0 -- -- 45
2019-02-14 10:00:00 7.1 0 Calma 3 Sudoeste 0 -- -- 55
2019-02-14 09:00:00 5.1 0 Calma 4 Norte 0 -- -- 62
2019-02-14 08:00:00 0.6 0 Calma 4 Norte 0 -- -- 76
2019-02-14 07:00:00 0.8 0 Calma 5 Noroeste 0 -- -- 72
2019-02-14 06:00:00 1.2 0 Calma 5 Sur 0 -- -- 74
2019-02-14 05:00:00 2.4 0 Calma 5 Sur 0 -- -- 70
2019-02-14 04:00:00 2.5 0 Calma 6 Norte 0 -- -- 72
2019-02-14 03:00:00 3.4 0 Calma 6 Norte 0 -- -- 69
2019-02-14 02:00:00 3.5 3 Noroeste 10 Norte 0 -- -- 69
2019-02-14 01:00:00 3.2 0 Calma 6 Noroeste 0 -- -- 72
2019-02-14 00:00:00 5 0 Calma 5 Noroeste 0 -- -- 63
2019-02-13 23:00:00 4.6 2 Norte 5 Norte 0 -- -- 65
2019-02-13 22:00:00 5.5 0 Calma 4 Norte 0 -- -- 63
2019-02-13 21:00:00 6.1 0 Calma 5 Oeste 0 -- -- 59
2019-02-13 20:00:00 8.5 0 Calma 8 Norte 0 -- -- 55
2019-02-13 19:00:00 11.2 3 Sudeste 10 Sudeste 0 -- -- 46
2019-02-13 18:00:00 14.3 6 Sudeste 15 Sur 0 -- -- 41
2019-02-13 17:00:00 16 5 Este 18 Sudoeste 0 -- -- 36
2019-02-13 16:00:00 16 6 Sur 16 Sudeste 0 -- -- 40
2019-02-13 15:00:00 15.7 6 Sur 17 Sur 0 -- -- 42
2019-02-13 14:00:00 14.9 5 Sur 13 Este 0 -- -- 43
2019-02-13 13:00:00 14.5 4 Sudeste 12 Sudeste 0 -- -- 44
2019-02-13 12:00:00 13.8 3 Sur 9 Sudoeste 0 -- -- 44
2019-02-13 11:00:00 11.1 3 Sudoeste 7 Sudoeste -- -- -- 51
2019-02-13 10:00:00 10.4 0 Calma 2 Sur 0 -- -- 51
2019-02-13 09:00:00 5.3 0 Calma 6 Norte 0 -- -- 69
2019-02-13 08:00:00 0.6 2 Noroeste 6 Noroeste 0 -- -- 83
2019-02-13 07:00:00 0.7 2 Norte 6 Norte 0 -- -- 85
2019-02-13 06:00:00 1.6 0 Calma 5 Norte 0 -- -- 79
2019-02-13 05:00:00 1.9 0 Calma 4 Este 0 -- -- 78
2019-02-13 04:00:00 2 2 Este 8 Norte 0 -- -- 77
2019-02-13 03:00:00 2.5 0 Calma 3 Norte 0 -- -- 76
2019-02-13 02:00:00 2.6 0 Calma 3 Norte 0 -- -- 77
2019-02-13 01:00:00 3.3 0 Calma 2 Norte 0 -- -- 72
2019-02-13 00:00:00 3.7 0 Calma 2 Noroeste 0 -- -- 68
2019-02-12 23:00:00 3.6 0 Calma 6 Norte 0 -- -- 67
2019-02-12 22:00:00 4.9 0 Calma 4 Norte 0 -- -- 59
2019-02-12 21:00:00 4.8 2 Nordeste 6 Noroeste 0 -- -- 60
2019-02-12 20:00:00 6.7 3 Norte 9 Norte 0 -- -- 55
2019-02-12 19:00:00 9.5 3 Sur 12 Sur 0 -- -- 43
2019-02-12 18:00:00 12.7 6 Este 11 Este 0 -- -- 36
2019-02-12 17:00:00 14.5 4 Este 13 Sudeste 0 -- -- 32
2019-02-12 16:00:00 13.6 7 Este 18 Este 0 -- -- 31
2019-02-12 15:00:00 12.5 9 Este 20 Este 0 -- -- 31
2019-02-12 14:00:00 11.7 8 Este 16 Este 0 -- -- 34
2019-02-12 13:00:00 11.4 7 Este 16 Este 0 -- -- 37
2019-02-12 12:00:00 10.4 4 Sur 14 Este 0 -- -- 47
2019-02-12 11:00:00 9.4 3 Sudoeste 9 Este 0 -- -- 49
2019-02-12 10:00:00 7.9 2 Sudeste 5 Este 0 -- -- 55
2019-02-12 09:00:00 2.4 3 Noroeste 7 Norte 0 -- -- 76
2019-02-12 08:00:00 -0.6 2 Norte 5 Nordeste 0 -- -- 86
2019-02-12 07:00:00 -0.6 0 Calma 5 Noroeste 0 -- -- 85
2019-02-12 06:00:00 -0.4 0 Calma 3 Este 0 -- -- 86
2019-02-12 05:00:00 -0.4 0 Calma 5 Nordeste 0 -- -- 86
2019-02-12 04:00:00 0.1 2 Norte 8 Norte 0 -- -- 84
2019-02-12 03:00:00 0.4 0 Calma 6 Norte 0 -- -- 84
2019-02-12 02:00:00 1 0 Calma 6 Noroeste 0 -- -- 80
2019-02-12 01:00:00 2.8 2 Noroeste 17 Este 0 -- -- 73
2019-02-12 00:00:00 4.3 9 Este 17 Este 0 -- -- 68
2019-02-11 23:00:00 3.9 4 Noroeste 10 Este 0 -- -- 67
2019-02-11 22:00:00 5.9 4 Este 8 Noroeste 0 -- -- 59
2019-02-11 21:00:00 5.5 4 Noroeste 8 Norte 0 -- -- 61
2019-02-11 20:00:00 7.8 5 Oeste 17 Oeste 0 -- -- 51
2019-02-11 19:00:00 9.3 4 Oeste 18 Noroeste 0 -- -- 44
2019-02-11 18:00:00 12.3 10 Noroeste 18 Oeste 0 -- -- 36
2019-02-11 17:00:00 13.3 9 Oeste 23 Noroeste 0 -- -- 35
2019-02-11 16:00:00 12.8 14 Oeste 26 Noroeste 0 -- -- 38
2019-02-11 15:00:00 13 10 Oeste 21 Oeste 0 -- -- 41
2019-02-11 14:00:00 13.7 5 Noroeste 13 Noroeste 0 -- -- 41
2019-02-11 13:00:00 11.5 6 Oeste 12 Norte 0 -- -- 43
2019-02-11 12:00:00 10 6 Noroeste 17 Noroeste 0 -- -- 52
2019-02-11 11:00:00 10.4 3 Sur 12 Sudeste 0 -- -- 54
2019-02-11 10:00:00 8.9 4 Este 14 Noroeste 0 -- -- 57
2019-02-11 09:00:00 5 8 Noroeste 15 Norte 0 -- -- 67
2019-02-11 08:00:00 3.1 0 Calma 23 Oeste 0 -- -- 76
2019-02-11 07:00:00 4.3 12 Noroeste 25 Noroeste 0 -- -- 72
2019-02-11 06:00:00 5.1 14 Noroeste 26 Noroeste 0 -- -- 69
2019-02-11 05:00:00 6.2 8 Noroeste 32 Norte 0 -- -- 61
2019-02-11 04:00:00 7 14 Noroeste 30 Noroeste 0 -- -- 60
2019-02-11 03:00:00 7.2 14 Noroeste 29 Norte 0 -- -- 60
2019-02-11 02:00:00 7.8 4 Norte 17 Oeste 0 -- -- 61
2019-02-11 01:00:00 8.8 6 Noroeste 30 Oeste 0 -- -- 64
2019-02-11 00:00:00 9.5 20 Noroeste 38 Noroeste 0 -- -- 72
2019-02-10 23:00:00 9.7 19 Noroeste 45 Noroeste 0 -- -- 74
2019-02-10 22:00:00 10.1 22 Noroeste 36 Oeste 0 -- -- 75
2019-02-10 21:00:00 10.4 19 Noroeste 36 Noroeste 0 -- -- 78
2019-02-10 20:00:00 11.6 18 Oeste 39 Oeste 0 -- -- 71
2019-02-10 19:00:00 12.1 15 Oeste 31 Oeste 0 -- -- 69
2019-02-10 18:00:00 12.6 15 Noroeste 41 Oeste 0 -- -- 66
2019-02-10 17:00:00 12.9 12 Noroeste 22 Oeste 0 -- -- 65
2019-02-10 16:00:00 11 4 Sudeste 14 Sur 0 -- -- 74
2019-02-10 15:00:00 10.7 6 Sudeste 13 Sudeste 0 -- -- 75
2019-02-10 14:00:00 10.1 6 Sur 18 Sudoeste 0 -- -- 76
2019-02-10 13:00:00 11.7 8 Sur 19 Sur 0 -- -- 67
2019-02-10 12:00:00 8.8 8 Sudoeste 18 Sudoeste 0 -- -- 76
2019-02-10 11:00:00 7.5 4 Sudoeste 14 Sur 0 -- -- 75
2019-02-10 10:00:00 7.7 8 Sudoeste 25 Oeste 0 -- -- 68
2019-02-10 09:00:00 7.9 10 Oeste 18 Oeste 0 -- -- 67
2019-02-10 08:00:00 7.8 10 Oeste 29 Oeste 0 -- -- 67
2019-02-10 07:00:00 5.3 4 Sur 26 Noroeste 0 -- -- 76
2019-02-10 06:00:00 6.8 15 Oeste 38 Noroeste 0 -- -- 70
2019-02-10 05:00:00 6.2 15 Oeste 26 Oeste 0 -- -- 74
2019-02-10 04:00:00 2.8 3 Sudoeste 8 Sudeste 0 -- -- 92
2019-02-10 03:00:00 3.2 2 Norte 7 Sudeste 0 -- -- 92
2019-02-10 02:00:00 3.7 0 Calma 3 Noroeste 0 -- -- 91
2019-02-10 01:00:00 3.7 0 Calma 4 Norte 0 -- -- 90
2019-02-10 00:00:00 3.5 0 Calma 5 Sudeste 0 -- -- 91
2019-02-09 23:00:00 3.9 2 Sudeste 6 Norte 0 -- -- 89
2019-02-09 22:00:00 4.2 0 Calma 5 Norte 0 -- -- 88
2019-02-09 21:00:00 5.3 2 Norte 5 Norte 0 -- -- 85
2019-02-09 20:00:00 6.7 0 Calma 6 Sur 0 -- -- 80
2019-02-09 19:00:00 8.1 2 Sudeste 13 Sur 0 -- -- 73
2019-02-09 18:00:00 10.1 4 Sudoeste 14 Sudoeste 0 -- -- 62
2019-02-09 17:00:00 12 6 Sur 14 Sur 0 -- -- 55
2019-02-09 16:00:00 13.2 5 Sudoeste 16 Sudeste 0 -- -- 52
2019-02-09 15:00:00 13.8 6 Sudoeste 16 Sur 0 -- -- 49
2019-02-09 14:00:00 13.1 5 Sudoeste 14 Sudoeste 0 -- -- 51
2019-02-09 13:00:00 12.9 5 Sur 13 Sur 0 -- -- 51
2019-02-09 12:00:00 12.6 5 Sur 10 Sur 0 -- -- 52
2019-02-09 11:00:00 11.1 4 Sur 8 Sur 0 -- -- 57
2019-02-09 10:00:00 9.7 0 Calma 2 Oeste 0 -- -- 63
2019-02-09 09:00:00 3.5 0 Calma 2 Nordeste 0 -- -- 82
2019-02-09 08:00:00 1.9 0 Calma 7 Norte 0 -- -- 89
2019-02-09 07:00:00 2.3 0 Calma 6 Norte 0 -- -- 86
2019-02-09 06:00:00 4.1 3 Nordeste 11 Norte 0 -- -- 80
2019-02-09 05:00:00 4.7 7 Noroeste 13 Noroeste 0 -- -- 79
2019-02-09 04:00:00 5.3 3 Norte 9 Norte 0 -- -- 72
2019-02-09 03:00:00 6.2 4 Norte 26 Norte 0 -- -- 73
2019-02-09 02:00:00 6.8 9 Noroeste 26 Noroeste 0 -- -- 74
2019-02-09 01:00:00 6.6 6 Noroeste 13 Norte 0 -- -- 77
2019-02-09 00:00:00 8 11 Oeste 32 Oeste 0 -- -- 69
2019-02-08 23:00:00 8.2 21 Noroeste 34 Noroeste 0 -- -- 72
2019-02-08 22:00:00 8.7 11 Noroeste 23 Noroeste 0 -- -- 69
2019-02-08 21:00:00 9.2 10 Noroeste 30 Oeste 0 -- -- 60
2019-02-08 20:00:00 8.1 0 Calma 5 Sur 0 -- -- 70
2019-02-08 19:00:00 9.9 3 Sur 13 Sur 0 -- -- 65
2019-02-08 18:00:00 13.5 5 Sudoeste 13 Sudoeste 0 -- -- 52
2019-02-08 17:00:00 14.9 5 Sur 14 Sudoeste 0 -- -- 47
2019-02-08 16:00:00 14.8 6 Sudoeste 17 Este 0 -- -- 49
2019-02-08 15:00:00 14.1 8 Sur 16 Sur 0 -- -- 50
2019-02-08 14:00:00 13.9 5 Sur 13 Este 0 -- -- 48
2019-02-08 13:00:00 13.2 4 Sudeste 10 Sudeste 0 -- -- 51
2019-02-08 12:00:00 12.5 4 Sudoeste 9 Sur 0 -- -- 50
2019-02-08 11:00:00 12.5 0 Calma 5 Sudeste 0 -- -- 48
2019-02-08 10:00:00 8.1 0 Calma 4 Norte 0 -- -- 61
2019-02-08 09:00:00 2.7 0 Calma 4 Norte 0 -- -- 79
2019-02-08 08:00:00 0.5 2 Oeste 5 Norte 0 -- -- 87
2019-02-08 07:00:00 1.2 0 Calma 4 Norte 0 -- -- 85
2019-02-08 06:00:00 1.4 0 Calma 2 Noroeste 0 -- -- 82
2019-02-08 05:00:00 1.2 0 Calma 6 Norte 0 -- -- 85
2019-02-08 04:00:00 1.6 2 Noroeste 6 Noroeste 0 -- -- 82
2019-02-08 03:00:00 1.8 0 Calma 3 Noroeste 0 -- -- 79
2019-02-08 02:00:00 2.6 0 Calma 8 Noroeste 0 -- -- 79
2019-02-08 01:00:00 2.7 4 Norte 7 Norte 0 -- -- 78
2019-02-08 00:00:00 3.5 4 Norte 8 Norte 0 -- -- 72
2019-02-07 23:00:00 3.9 0 Calma 8 Noroeste 0 -- -- 67
2019-02-07 22:00:00 5.6 2 Oeste 12 Norte 0 -- -- 57
2019-02-07 21:00:00 7.7 7 Norte 11 Norte 0 -- -- 44
2019-02-07 20:00:00 8 6 Noroeste 18 Noroeste 0 -- -- 53
2019-02-07 19:00:00 10.2 11 Noroeste 30 Noroeste 0 -- -- 51
2019-02-07 18:00:00 12.3 15 Noroeste 31 Oeste 0 -- -- 45
2019-02-07 17:00:00 13.6 16 Noroeste 28 Oeste 0 -- -- 40
2019-02-07 16:00:00 14 14 Noroeste 26 Noroeste 0 -- -- 40
2019-02-07 15:00:00 13.4 15 Noroeste 33 Noroeste 0 -- -- 47
2019-02-07 14:00:00 12.9 15 Noroeste 33 Noroeste 0 -- -- 50
2019-02-07 13:00:00 12 18 Noroeste 38 Oeste 0 -- -- 50
2019-02-07 12:00:00 10.9 19 Oeste 34 Oeste 0 -- -- 52
2019-02-07 11:00:00 9.2 23 Noroeste 37 Noroeste 0 -- -- 37
2019-02-07 10:00:00 10.2 8 Noroeste 27 Oeste 0 -- -- 28
2019-02-07 09:00:00 7.8 17 Noroeste 33 Noroeste 0 -- -- 36
2019-02-07 08:00:00 7.7 7 Oeste 12 Noroeste 0 -- -- 37
2019-02-07 07:00:00 8.1 7 Noroeste 21 Noroeste 0 -- -- 54
2019-02-07 06:00:00 8.6 11 Noroeste 32 Oeste 0 -- -- 48
2019-02-07 05:00:00 8.4 16 Noroeste 29 Oeste 0 -- -- 49
2019-02-07 04:00:00 8.6 13 Oeste 24 Noroeste 0 -- -- 51
2019-02-07 03:00:00 9.3 15 Oeste 30 Noroeste 0 -- -- 49
2019-02-07 02:00:00 9.5 17 Noroeste 30 Noroeste 0 -- -- 60
2019-02-07 01:00:00 9.5 6 Noroeste 16 Noroeste 0 -- -- 62
2019-02-07 00:00:00 8.2 4 Norte 9 Oeste 0 -- -- 66
2019-02-06 23:00:00 7 2 Oeste 7 Sur 0 -- -- 74
2019-02-06 22:00:00 8 3 Norte 9 Oeste 0 -- -- 70
2019-02-06 21:00:00 7.6 2 Norte 6 Norte 0 -- -- 76
2019-02-06 20:00:00 8.4 3 Norte 5 Nordeste 0 -- -- 74
2019-02-06 19:00:00 10.8 0 Calma 11 Sur 0 -- -- 65
2019-02-06 18:00:00 13.4 5 Sudoeste 14 Sur 0 -- -- 56
2019-02-06 17:00:00 15.8 6 Sudoeste 14 Sur 0 -- -- 50
2019-02-06 16:00:00 16.6 4 Sur 15 Sur 0 -- -- 48
2019-02-06 15:00:00 16 6 Sudeste 12 Sur 0 -- -- 48
2019-02-06 14:00:00 16 4 Sudeste 14 Sur 0 -- -- 47
2019-02-06 13:00:00 15.2 4 Sur 12 Sur 0 -- -- 46
2019-02-06 12:00:00 14.4 2 Sudoeste 6 Sudeste 0 -- -- 49
2019-02-06 11:00:00 13.1 2 Sudoeste 6 Sur 0 -- -- 52
2019-02-06 10:00:00 8.7 0 Calma 2 Oeste 0 -- -- 68
2019-02-06 09:00:00 3.8 0 Calma 4 Norte 0 -- -- 82
2019-02-06 08:00:00 1.9 0 Calma 3 Este 0 -- -- 91
2019-02-06 07:00:00 1.7 3 Norte 6 Norte 0 -- -- 92
2019-02-06 06:00:00 2 0 Calma 3 Nordeste 0 -- -- 89
2019-02-06 05:00:00 2.1 0 Calma 6 Norte 0 -- -- 89
2019-02-06 04:00:00 3.2 0 Calma 6 Norte 0 -- -- 88
2019-02-06 03:00:00 3 0 Calma 5 Noroeste 0 -- -- 89
2019-02-06 02:00:00 3.5 3 Este 5 Este 0 -- -- 87
2019-02-06 01:00:00 4.7 2 Este 4 Noroeste 0 -- -- 82
2019-02-06 00:00:00 5 2 Sudeste 6 Noroeste 0 -- -- 80
2019-02-05 23:00:00 4.9 3 Norte 9 Norte 0 -- -- 81
2019-02-05 22:00:00 6.3 5 Norte 10 Norte 0 -- -- 75
2019-02-05 21:00:00 7.5 4 Norte 11 Norte 0 -- -- 70
2019-02-05 20:00:00 8.2 6 Nordeste 13 Norte 0 -- -- 68
2019-02-05 19:00:00 10.5 3 Sudoeste 10 Sur 0 -- -- 59
2019-02-05 18:00:00 13.7 5 Sudoeste 14 Sudoeste 0 -- -- 50
2019-02-05 17:00:00 15.3 6 Sudoeste 15 Sur 0 -- -- 46
2019-02-05 16:00:00 15.6 7 Sur 17 Sudoeste 0 -- -- 44
2019-02-05 15:00:00 15.4 8 Sur 18 Sudeste 0 -- -- 44
2019-02-05 14:00:00 15.3 6 Sur 19 Sur 0 -- -- 44
2019-02-05 13:00:00 14.9 4 Sudoeste 14 Sudoeste 0 -- -- 44
2019-02-05 12:00:00 13.8 3 Sudoeste 7 Oeste 0 -- -- 44
2019-02-05 11:00:00 12.4 3 Sur 5 Sur 0 -- -- 45
2019-02-05 10:00:00 10.2 0 Calma 2 Sudoeste 0 -- -- 52
2019-02-05 09:00:00 3.7 0 Calma 5 Norte 0 -- -- 72
2019-02-05 08:00:00 1.8 2 Norte 4 Norte 0 -- -- 79
2019-02-05 07:00:00 2.7 0 Calma 6 Noroeste 0 -- -- 72
2019-02-05 06:00:00 2.6 2 Norte 6 Noroeste 0 -- -- 72
2019-02-05 05:00:00 3 0 Calma 5 Norte 0 -- -- 70
2019-02-05 04:00:00 3.8 2 Norte 6 Norte 0 -- -- 68
2019-02-05 03:00:00 3.5 4 Nordeste 11 Este 0 -- -- 73
2019-02-05 02:00:00 4.7 2 Este 11 Norte 0 -- -- 69
2019-02-05 01:00:00 5.1 4 Norte 8 Este 0 -- -- 66
2019-02-05 00:00:00 6 4 Este 10 Norte 0 -- -- 54
2019-02-04 23:00:00 6 5 Nordeste 13 Noroeste 0 -- -- 54
2019-02-04 22:00:00 6.1 7 Noroeste 15 Noroeste 0 -- -- 49
2019-02-04 21:00:00 6.4 0 Calma 12 Noroeste 0 -- -- 53
2019-02-04 20:00:00 7.7 6 Noroeste 14 Oeste 0 -- -- 46
2019-02-04 19:00:00 8.9 6 Oeste 15 Noroeste 0 -- -- 38
2019-02-04 18:00:00 10.9 10 Oeste 18 Oeste 0 -- -- 31
2019-02-04 17:00:00 12.5 8 Oeste 22 Oeste 0 -- -- 30
2019-02-04 16:00:00 13.3 9 Oeste 17 Oeste 0 -- -- 27
2019-02-04 15:00:00 13.8 4 Sudeste 9 Este 0 -- -- 33
2019-02-04 14:00:00 12.6 0 Calma 8 Sur 0 -- -- 34
2019-02-04 13:00:00 7.9 3 Oeste 9 Sur 0 -- -- 40
2019-02-04 12:00:00 8.7 3 Sudoeste 7 Sudoeste 0 -- -- 37
2019-02-04 11:00:00 7.1 2 Sudoeste 6 Sur 0 -- -- 45
2019-02-04 10:00:00 5.6 0 Calma 6 Noroeste 0 -- -- 43
2019-02-04 09:00:00 -0.7 3 Noroeste 8 Sudeste 0 -- -- 68
2019-02-04 08:00:00 -1.5 4 Noroeste 9 Noroeste 0 -- -- 67
2019-02-04 07:00:00 -1.9 3 Noroeste 7 Noroeste 0 -- -- 69
2019-02-04 06:00:00 -1.1 3 Nordeste 13 Norte 0 -- -- 65
2019-02-04 05:00:00 -1.3 3 Nordeste 10 Oeste 0 -- -- 65
2019-02-04 04:00:00 -1 4 Nordeste 14 Norte 0 -- -- 64
2019-02-04 03:00:00 0.5 3 Norte 27 Noroeste 0 -- -- 58
2019-02-04 02:00:00 -1.9 6 Norte 10 Norte 0 -- -- 73
2019-02-04 01:00:00 -1.3 3 Noroeste 6 Norte 0 -- -- 70
2019-02-04 00:00:00 -0.5 3 Nordeste 10 Norte 0 -- -- 67
2019-02-03 23:00:00 0.2 3 Norte 13 Norte 0 -- -- 63
2019-02-03 22:00:00 0.3 5 Norte 10 Norte 0 -- -- 64
2019-02-03 21:00:00 1.8 5 Noroeste 13 Noroeste 0 -- -- 56
2019-02-03 20:00:00 2.2 6 Noroeste 26 Norte 0 -- -- 58
2019-02-03 19:00:00 2.4 13 Norte 33 Norte 0 -- -- 59
2019-02-03 18:00:00 4.4 17 Norte 48 Norte 0 -- -- 52
2019-02-03 17:00:00 5 26 Norte 48 Norte 0 -- -- 48
2019-02-03 16:00:00 5.8 19 Norte 48 Noroeste 0 -- -- 46
2019-02-03 15:00:00 5.1 28 Norte 59 Norte 0 -- -- 49
2019-02-03 14:00:00 4.6 27 Norte 57 Norte 0 -- -- 50
2019-02-03 13:00:00 4.5 22 Norte 55 Norte 0 -- -- 48
2019-02-03 12:00:00 3.9 27 Noroeste 54 Norte 0 -- -- 49
2019-02-03 11:00:00 3.4 23 Noroeste 56 Nordeste 0 -- -- 46
2019-02-03 10:00:00 2.9 16 Norte 32 Noroeste 0 -- -- 47
2019-02-03 09:00:00 1.5 14 Norte 48 Nordeste 0 -- -- 50
2019-02-03 08:00:00 1.1 19 Noroeste 40 Norte 0 -- -- 55
2019-02-03 07:00:00 0.9 17 Norte 41 Norte 0 -- -- 55
2019-02-03 06:00:00 0.8 15 Nordeste 33 Nordeste 0 -- -- 60
2019-02-03 05:00:00 0.7 4 Este 16 Sudeste 0 -- -- 63
2019-02-03 04:00:00 0.9 5 Sur 26 Oeste 0 -- -- 63
2019-02-03 03:00:00 1.3 10 Sudoeste 27 Sur 0 -- -- 61
2019-02-03 02:00:00 1.3 7 Noroeste 31 Norte 0 -- -- 64
2019-02-03 01:00:00 1.2 9 Norte 42 Noroeste 0 -- -- 66
2019-02-03 00:00:00 1.3 15 Noroeste 54 Noroeste 0 -- -- 66
2019-02-02 23:00:00 1.8 20 Noroeste 46 Noroeste 0 -- -- 62
2019-02-02 22:00:00 1.9 21 Noroeste 55 Norte 0 -- -- 61
2019-02-02 21:00:00 2.2 19 Noroeste 46 Noroeste 0 -- -- 59
2019-02-02 20:00:00 2 13 Noroeste 40 Noroeste 0 -- -- 59
2019-02-02 19:00:00 0.2 7 Norte 26 Noroeste 0.2 -- -- 88
2019-02-02 18:00:00 3.5 10 Noroeste 28 Norte 0 -- -- 60
2019-02-02 17:00:00 1.6 8 Nordeste 41 Norte 0 -- -- 80
2019-02-02 16:00:00 4.9 18 Noroeste 45 Noroeste 0 -- -- 56
2019-02-02 15:00:00 3.9 23 Noroeste 51 Noroeste 0 -- -- 65
2019-02-02 14:00:00 4.3 32 Noroeste 69 Noroeste 0 -- -- 57
2019-02-02 13:00:00 3.5 39 Noroeste 83 Noroeste 0 -- -- 62
2019-02-02 12:00:00 2.3 32 Noroeste 58 Noroeste 0 -- -- 69
2019-02-02 11:00:00 1.5 18 Noroeste 57 Noroeste 0 -- -- 68
2019-02-02 10:00:00 0.9 12 Noroeste 38 Oeste 0 -- -- 69
2019-02-02 09:00:00 1.5 12 Noroeste 48 Oeste 0 -- -- 61
2019-02-02 08:00:00 1.2 28 Noroeste 67 Oeste 0 -- -- 65
2019-02-02 07:00:00 1 28 Noroeste 68 Oeste 0 -- -- 71
2019-02-02 06:00:00 1.1 31 Noroeste 59 Oeste 0 -- -- 74
2019-02-02 05:00:00 1.7 28 Noroeste 68 Oeste 0 -- -- 73
2019-02-02 04:00:00 2.1 33 Noroeste 68 Noroeste 0 -- -- 73
2019-02-02 03:00:00 2.4 33 Noroeste 67 Noroeste 0 -- -- 72
2019-02-02 02:00:00 2.6 33 Noroeste 65 Oeste 0 -- -- 72
2019-02-02 01:00:00 2.7 32 Noroeste 66 Noroeste 0 -- -- 72
2019-02-02 00:00:00 3.1 35 Noroeste 68 Noroeste 0 -- -- 70
2019-02-01 23:00:00 3.1 35 Noroeste 60 Oeste 0 -- -- 70
2019-02-01 22:00:00 3.4 30 Oeste 62 Noroeste 0 -- -- 71
2019-02-01 21:00:00 3.3 23 Noroeste 60 Oeste 0 -- -- 72
2019-02-01 20:00:00 3.8 24 Oeste 46 Oeste 0 -- -- 66
2019-02-01 19:00:00 3.2 20 Oeste 40 Oeste 0 -- -- 69
2019-02-01 18:00:00 3.6 20 Oeste 50 Oeste 0 -- -- 70
2019-02-01 17:00:00 4.7 31 Oeste 51 Oeste 0.4 -- -- 67
2019-02-01 16:00:00 4.9 29 Oeste 62 Oeste 0.4 -- -- 73
2019-02-01 15:00:00 4.7 13 Oeste 38 Sur 0.8 -- -- 87
2019-02-01 14:00:00 6.7 13 Sudoeste 34 Sur 0 -- -- 73
2019-02-01 13:00:00 6.5 12 Sur 28 Sudeste 0 -- -- 73
2019-02-01 12:00:00 5.3 10 Sudeste 28 Oeste 0 -- -- 81
2019-02-01 11:00:00 6 7 Oeste 24 Sudoeste 0 -- -- 57
2019-02-01 10:00:00 6.3 6 Oeste 37 Noroeste 0 -- -- 57
2019-02-01 09:00:00 5.3 14 Oeste 28 Oeste 0 -- -- 70
2019-02-01 08:00:00 5.4 8 Oeste 29 Oeste 0 -- -- 74
2019-02-01 07:00:00 5.1 4 Norte 22 Noroeste 0 -- -- 83
2019-02-01 06:00:00 5.8 4 Oeste 15 Oeste 0 -- -- 83
2019-02-01 05:00:00 6.2 5 Noroeste 22 Oeste 0.2 -- -- 82
2019-02-01 04:00:00 5.6 4 Oeste 23 Noroeste 0 -- -- 84
2019-02-01 03:00:00 5.5 12 Noroeste 34 Noroeste 0.6 -- -- 85
2019-02-01 02:00:00 7.8 5 Oeste 22 Norte 1.4 -- -- 96
2019-02-01 01:00:00 7.6 4 Sur 14 Sur 0.2 -- -- 97
2019-02-01 00:00:00 7.5 5 Sur 14 Sur 0 -- -- 96
2019-01-31 23:00:00 7.6 7 Sur 19 Sur 0 -- -- 94
2019-01-31 22:00:00 8 6 Sur 22 Sur 0 -- -- 90
2019-01-31 21:00:00 8.4 12 Sudoeste 27 Sudoeste 0 -- -- 86
2019-01-31 20:00:00 8.7 11 Sudoeste 24 Sur 0 -- -- 89
2019-01-31 19:00:00 8.6 12 Sur 32 Sudoeste 0.2 -- -- 91
2019-01-31 18:00:00 10 10 Sudoeste 26 Sur 0 -- -- 83
2019-01-31 17:00:00 11 13 Sudoeste 30 Sudoeste 0 -- -- 79
2019-01-31 16:00:00 11 14 Sudoeste 33 Sudoeste 0 -- -- 79
2019-01-31 15:00:00 11.5 15 Sudoeste 35 Sur 0 -- -- 77
2019-01-31 14:00:00 11.4 11 Sudoeste 31 Sur 0 -- -- 78
2019-01-31 13:00:00 11.8 11 Sudoeste 30 Sudoeste 0 -- -- 76
2019-01-31 12:00:00 11.2 12 Sudoeste 28 Sudoeste 0 -- -- 77
2019-01-31 11:00:00 9.1 13 Sur 28 Sudoeste 0 -- -- 80
2019-01-31 10:00:00 8.3 8 Sudoeste 23 Sudoeste 0 -- -- 81
2019-01-31 09:00:00 8.7 8 Oeste 29 Sudoeste 0 -- -- 70
2019-01-31 08:00:00 8.7 4 Oeste 19 Sudoeste 0 -- -- 65
2019-01-31 07:00:00 8.6 6 Sudoeste 18 Noroeste 0 -- -- 82
2019-01-31 06:00:00 8.1 7 Sur 25 Sur 0 -- -- 88
2019-01-31 05:00:00 7.6 6 Sudoeste 18 Sur 0 -- -- 89
2019-01-31 04:00:00 7.4 4 Sudoeste 18 Sur 0 -- -- 90
2019-01-31 03:00:00 6.7 7 Sudoeste 24 Sur 0 -- -- 93
2019-01-31 02:00:00 5.9 9 Sudoeste 22 Sudoeste 0.6 -- -- 94
2019-01-31 01:00:00 5.4 11 Sur 23 Sur 0.2 -- -- 94
2019-01-31 00:00:00 4.8 7 Sur 22 Sur -- -- -- 97
2019-01-30 23:00:00 4.1 6 Sur 12 Sur 0.4 -- -- 97
2019-01-30 22:00:00 3.7 0 Calma 5 Sudeste 1.2 -- -- 96
2019-01-30 21:00:00 3.5 0 Calma 4 Sur 1.4 -- -- 95
2019-01-30 20:00:00 3.4 2 Sudeste 6 Sur 1 -- -- 93
2019-01-30 19:00:00 3.5 2 Oeste 17 Sudoeste 1 -- -- 91
2019-01-30 18:00:00 5 5 Oeste 16 Noroeste 0.2 -- -- 84
2019-01-30 17:00:00 5.4 10 Noroeste 26 Norte 0 -- -- 73
2019-01-30 16:00:00 7.5 13 Noroeste 25 Oeste 0 -- -- 51
2019-01-30 15:00:00 7.7 13 Noroeste 26 Noroeste 0 -- -- 42
2019-01-30 14:00:00 7.2 14 Noroeste 34 Oeste 0 -- -- 54
2019-01-30 13:00:00 5.8 16 Noroeste 38 Noroeste 0 -- -- 58
2019-01-30 12:00:00 4.7 21 Noroeste 36 Oeste 0 -- -- 62
2019-01-30 11:00:00 3.4 19 Noroeste 33 Oeste 0 -- -- 70
2019-01-30 10:00:00 3.1 23 Oeste 39 Oeste 0 -- -- 72
2019-01-30 09:00:00 2.7 16 Oeste 32 Oeste 0 -- -- 72
2019-01-30 08:00:00 2.6 17 Oeste 29 Oeste 0 -- -- 77
2019-01-30 07:00:00 2.9 13 Noroeste 33 Oeste 0 -- -- 73
2019-01-30 06:00:00 2.9 19 Noroeste 33 Oeste 0 -- -- 73
2019-01-30 05:00:00 3.3 18 Noroeste 39 Oeste 0 -- -- 74
2019-01-30 04:00:00 3.4 15 Noroeste 30 Noroeste 0 -- -- 75
2019-01-30 03:00:00 3.6 6 Oeste 24 Noroeste 0 -- -- 75
2019-01-30 02:00:00 3.8 7 Noroeste 27 Noroeste 0 -- -- 73
2019-01-30 01:00:00 3.9 15 Oeste 37 Oeste 0 -- -- 73
2019-01-30 00:00:00 4.4 19 Noroeste 43 Noroeste 0 -- -- 73
2019-01-29 23:00:00 5 26 Noroeste 50 Noroeste 0 -- -- 71
2019-01-29 22:00:00 5.9 32 Noroeste 55 Noroeste 0 -- -- 66
2019-01-29 21:00:00 6.4 29 Noroeste 57 Noroeste 0 -- -- 68
2019-01-29 20:00:00 7.8 29 Noroeste 60 Noroeste 0 -- -- 70
2019-01-29 19:00:00 7.4 34 Noroeste 62 Noroeste 1.2 -- -- 79
2019-01-29 18:00:00 8.2 30 Noroeste 59 Noroeste 0.2 -- -- 75
2019-01-29 17:00:00 8.2 25 Noroeste 50 Oeste 0.2 -- -- 75
2019-01-29 16:00:00 8.2 25 Oeste 47 Oeste 0.4 -- -- 74
2019-01-29 15:00:00 8.9 28 Oeste 47 Noroeste 0 -- -- 65
2019-01-29 14:00:00 9.1 25 Noroeste 50 Oeste 0 -- -- 63
2019-01-29 13:00:00 8 26 Oeste 55 Oeste 0 -- -- 69
2019-01-29 12:00:00 6.8 21 Oeste 45 Oeste 0 -- -- 81
2019-01-29 11:00:00 7.2 18 Oeste 35 Noroeste 0 -- -- 71
2019-01-29 10:00:00 5 10 Oeste 27 Oeste 0 -- -- 82
2019-01-29 09:00:00 4.3 4 Noroeste 14 Sudoeste 0 -- -- 80
2019-01-29 08:00:00 3.9 5 Sudoeste 28 Noroeste 0 -- -- 80
2019-01-29 07:00:00 3.8 15 Noroeste 28 Oeste 0 -- -- 79
2019-01-29 06:00:00 3.8 16 Noroeste 29 Oeste 0 -- -- 77
2019-01-29 05:00:00 3.7 19 Oeste 36 Oeste 0 -- -- 77
2019-01-29 04:00:00 3.8 21 Oeste 34 Noroeste 0 -- -- 77
2019-01-29 03:00:00 3.5 13 Noroeste 28 Oeste 0 -- -- 79
2019-01-29 02:00:00 3.5 8 Oeste 19 Oeste 0 -- -- 79
2019-01-29 01:00:00 4.3 4 Oeste 9 Oeste 0 -- -- 73
2019-01-29 00:00:00 5.6 6 Noroeste 23 Oeste 0 -- -- 63
2019-01-28 23:00:00 6.6 11 Oeste 29 Oeste 0 -- -- 57
2019-01-28 22:00:00 7.3 19 Oeste 32 Oeste 0 -- -- 58
2019-01-28 21:00:00 8 17 Noroeste 36 Sudoeste 0 -- -- 58
2019-01-28 20:00:00 8.4 14 Oeste 37 Noroeste 0 -- -- 66
2019-01-28 19:00:00 8.1 19 Oeste 42 Oeste 0 -- -- 71
2019-01-28 18:00:00 8.8 16 Oeste 39 Oeste 0 -- -- 68
2019-01-28 17:00:00 9.4 17 Oeste 50 Oeste 0 -- -- 64
2019-01-28 16:00:00 9.9 24 Noroeste 55 Noroeste 0 -- -- 59
2019-01-28 15:00:00 9.8 30 Noroeste 72 Noroeste 0 -- -- 58
2019-01-28 14:00:00 8.9 39 Noroeste 73 Oeste 0 -- -- 62
2019-01-28 13:00:00 8.5 34 Noroeste 69 Noroeste 0 -- -- 63
2019-01-28 12:00:00 6.7 39 Noroeste 68 Noroeste 0 -- -- 71
2019-01-28 11:00:00 5.8 34 Noroeste 69 Oeste 0 -- -- 75
2019-01-28 10:00:00 4.9 36 Noroeste 64 Noroeste 0 -- -- 78
2019-01-28 09:00:00 3.5 35 Noroeste 59 Norte 0 -- -- 83
2019-01-28 08:00:00 3.2 32 Noroeste 56 Noroeste 0 -- -- 79
2019-01-28 07:00:00 2.9 28 Noroeste 60 Noroeste 0 -- -- 76
2019-01-28 06:00:00 3.5 31 Noroeste 62 Noroeste 0 -- -- 64
2019-01-28 05:00:00 3 30 Noroeste 59 Noroeste 0 -- -- 71
2019-01-28 04:00:00 4.2 23 Noroeste 56 Noroeste 0 -- -- 57
2019-01-28 03:00:00 4.8 28 Noroeste 59 Noroeste 0 -- -- 50
2019-01-28 02:00:00 4.4 26 Noroeste 58 Noroeste 0 -- -- 57
2019-01-28 01:00:00 4.7 28 Noroeste 58 Norte 0 -- -- 59
2019-01-28 00:00:00 4.8 17 Noroeste 44 Norte 0 -- -- 58
2019-01-27 23:00:00 5.1 12 Noroeste 33 Noroeste 0 -- -- 58
2019-01-27 22:00:00 5.4 9 Noroeste 33 Oeste 0 -- -- 63
2019-01-27 21:00:00 5.5 20 Oeste 36 Oeste 0 -- -- 66
2019-01-27 20:00:00 6.5 13 Oeste 37 Noroeste 0 -- -- 62
2019-01-27 19:00:00 7.1 12 Noroeste 31 Oeste 0 -- -- 55
2019-01-27 18:00:00 7.8 12 Noroeste 37 Noroeste 0 -- -- 49
2019-01-27 17:00:00 8.2 15 Noroeste 42 Noroeste 0 -- -- 49
2019-01-27 16:00:00 10.6 12 Norte 39 Oeste 0 -- -- 42
2019-01-27 15:00:00 10.4 13 Noroeste 33 Oeste 0 -- -- 44
2019-01-27 14:00:00 9.8 12 Noroeste 34 Noroeste 0 -- -- 47
2019-01-27 13:00:00 9.4 12 Noroeste 33 Noroeste 0 -- -- 47
2019-01-27 12:00:00 7.8 16 Noroeste 33 Noroeste 0 -- -- 51
2019-01-27 11:00:00 6.1 20 Noroeste 37 Noroeste 0 -- -- 63
2019-01-27 10:00:00 4.9 22 Oeste 41 Noroeste 0 -- -- 77
2019-01-27 09:00:00 5.4 19 Oeste 35 Oeste 0 -- -- 75
2019-01-27 08:00:00 6.1 11 Noroeste 33 Noroeste 0 -- -- 74
2019-01-27 07:00:00 6.6 11 Noroeste 30 Oeste 0 -- -- 66
2019-01-27 06:00:00 6.3 4 Oeste 26 Noroeste 0 -- -- 67
2019-01-27 05:00:00 6.7 7 Oeste 26 Sudoeste 0 -- -- 68
2019-01-27 04:00:00 7.4 10 Noroeste 32 Noroeste 0 -- -- 69
2019-01-27 03:00:00 8.1 19 Noroeste 40 Noroeste 0 -- -- 65
2019-01-27 02:00:00 9.2 27 Noroeste 55 Noroeste 0 -- -- 59
2019-01-27 01:00:00 9.8 32 Noroeste 66 Noroeste 0 -- -- 55
2019-01-27 00:00:00 9.5 23 Noroeste 39 Noroeste 0 -- -- 56
2019-01-26 23:00:00 9.3 4 Nordeste 15 Noroeste 0 -- -- 48
2019-01-26 22:00:00 9.9 5 Oeste 23 Noroeste 0 -- -- 48
2019-01-26 21:00:00 11.1 14 Noroeste 27 Noroeste 0 -- -- 40
2019-01-26 20:00:00 5.7 4 Norte 9 Noroeste 0 -- -- 78
2019-01-26 19:00:00 7.9 2 Norte 8 Sur 0 -- -- 69
2019-01-26 18:00:00 13.1 4 Sudoeste 9 Sur 0 -- -- 53
2019-01-26 17:00:00 15.2 4 Sudoeste 12 Sur 0 -- -- 46
2019-01-26 16:00:00 15.6 4 Sur 11 Sudoeste 0 -- -- 46
2019-01-26 15:00:00 15.2 3 Sur 11 Sur 0 -- -- 42
2019-01-26 14:00:00 14.7 2 Sudoeste 9 Oeste 0 -- -- 42
2019-01-26 13:00:00 11.8 4 Oeste 11 Oeste 0 -- -- 49
2019-01-26 12:00:00 12 0 Calma 7 Sudoeste 0 -- -- 45
2019-01-26 11:00:00 10 2 Sudoeste 5 Sudoeste 0 -- -- 53
2019-01-26 10:00:00 7.5 2 Este 4 Este 0 -- -- 59
2019-01-26 09:00:00 1.3 0 Calma 8 Noroeste 0 -- -- 82
2019-01-26 08:00:00 -0.1 2 Noroeste 6 Norte 0 -- -- 82
2019-01-26 07:00:00 0.7 0 Calma 8 Noroeste 0 -- -- 82
2019-01-26 06:00:00 0.6 0 Calma 6 Noroeste 0 -- -- 82
2019-01-26 05:00:00 0.5 0 Calma 9 Norte 0 -- -- 83
2019-01-26 04:00:00 0.7 0 Calma 7 Norte 0 -- -- 83
2019-01-26 03:00:00 1.6 4 Norte 7 Noroeste 0 -- -- 80
2019-01-26 02:00:00 2.9 0 Calma 6 Nordeste 0 -- -- 72
2019-01-26 01:00:00 3.4 0 Calma 11 Norte 0 -- -- 69
2019-01-26 00:00:00 5.3 5 Norte 12 Norte 0 -- -- 61
2019-01-25 23:00:00 6.7 3 Nordeste 14 Norte 0 -- -- 55
2019-01-25 22:00:00 7.6 5 Noroeste 22 Oeste 0 -- -- 57
2019-01-25 21:00:00 8.5 10 Noroeste 19 Noroeste 0 -- -- 53
2019-01-25 20:00:00 8.7 4 Norte 13 Noroeste 0 -- -- 46
2019-01-25 19:00:00 9.4 4 Noroeste 15 Noroeste 0 -- -- 49
2019-01-25 18:00:00 14.8 2 Sur 15 Sudeste 0 -- -- 40
2019-01-25 17:00:00 14.9 8 Sudeste 18 Sudeste 0 -- -- 39
2019-01-25 16:00:00 16.1 6 Sur 20 Sudeste 0 -- -- 38
2019-01-25 15:00:00 15.7 10 Sudeste 23 Noroeste 0 -- -- 39
2019-01-25 14:00:00 14.1 11 Norte 45 Norte 0 -- -- 39
2019-01-25 13:00:00 11.9 20 Norte 56 Noroeste 0 -- -- 49
2019-01-25 12:00:00 11.4 21 Norte 57 Noroeste 0 -- -- 51
2019-01-25 11:00:00 10.7 20 Norte 51 Norte 0 -- -- 55
2019-01-25 10:00:00 9 30 Norte 60 Noroeste 0 -- -- 65
2019-01-25 09:00:00 7.8 22 Norte 58 Norte 0 -- -- 69
2019-01-25 08:00:00 7.8 25 Noroeste 45 Noroeste 0 -- -- 69
2019-01-25 07:00:00 7.5 22 Noroeste 45 Noroeste 0 -- -- 72
2019-01-25 06:00:00 8 20 Norte 54 Norte 0 -- -- 68
2019-01-25 05:00:00 8.1 17 Norte 39 Norte 0 -- -- 69
2019-01-25 04:00:00 8.5 14 Norte 31 Norte 0 -- -- 72
2019-01-25 03:00:00 8 15 Noroeste 33 Noroeste 0 -- -- 77
2019-01-25 02:00:00 8.6 14 Noroeste 34 Noroeste 0 -- -- 74
2019-01-25 01:00:00 9.1 15 Noroeste 27 Noroeste 0 -- -- 71
2019-01-25 00:00:00 9.7 11 Noroeste 27 Noroeste 0 -- -- 67
2019-01-24 23:00:00 9.9 4 Oeste 24 Oeste 0 -- -- 65
2019-01-24 22:00:00 10 10 Noroeste 26 Oeste 0 -- -- 66
2019-01-24 21:00:00 10.5 5 Oeste 14 Oeste 0 -- -- 64
2019-01-24 20:00:00 10.6 7 Noroeste 25 Norte 0 -- -- 66
2019-01-24 19:00:00 11.2 12 Noroeste 20 Oeste 0 -- -- 63
2019-01-24 18:00:00 11.4 5 Norte 10 Norte 0 -- -- 64
2019-01-24 17:00:00 12 4 Sudoeste 30 Norte 0 -- -- 61
2019-01-24 16:00:00 11.8 5 Noroeste 20 Noroeste 0 -- -- 61
2019-01-24 15:00:00 11.5 9 Noroeste 19 Oeste 0 -- -- 62
2019-01-24 14:00:00 11.2 6 Noroeste 18 Oeste 0 -- -- 63
2019-01-24 13:00:00 10.2 6 Oeste 26 Oeste 0 -- -- 67
2019-01-24 12:00:00 8.8 9 Sudoeste 23 Sudoeste 0 -- -- 75
2019-01-24 11:00:00 9.2 7 Sur 34 Oeste 0 -- -- 70
2019-01-24 10:00:00 9.3 4 Sudeste 33 Norte 0 -- -- 68
2019-01-24 09:00:00 9.2 12 Noroeste 41 Noroeste 0 -- -- 65
2019-01-24 08:00:00 8.8 7 Noroeste 45 Noroeste 0 -- -- 67
2019-01-24 07:00:00 8.5 16 Noroeste 63 Noroeste 0 -- -- 70
2019-01-24 06:00:00 8.6 32 Noroeste 73 Noroeste 0 -- -- 71
2019-01-24 05:00:00 8.8 35 Noroeste 80 Noroeste 0 -- -- 69
2019-01-24 04:00:00 8.7 34 Noroeste 74 Noroeste 0 -- -- 68
2019-01-24 03:00:00 8.7 21 Noroeste 54 Noroeste 0 -- -- 67
2019-01-24 02:00:00 8.8 17 Noroeste 63 Oeste 0 -- -- 66
2019-01-24 01:00:00 8.9 16 Noroeste 61 Noroeste 0 -- -- 67
2019-01-24 00:00:00 9.2 30 Noroeste 66 Noroeste 0 -- -- 67